Terminal Aerodrome Forecast
Issued by NWS Bismarck, ND

Home | Current Version | Previous Version | Graphics & Text | Print | Product List | Glossary On
Versions: 1 2 3 4 5 6 7 8 9 10 11 12 13 14 15 16 17 18 19 20 21
000
FTUS43 KBIS 271734
TAFBIS
TAF
KBIS 271734Z 2718/2818 15013G24KT P6SM FEW100
     FM280100 15015G25KT P6SM VCTS BKN050CB
     FM280300 15015KT P6SM VCTS OVC040CB
     FM280800 22015G25KT P6SM BKN250
     FM281400 26028G40KT P6SM SCT100=

USA.gov is the U.S. government's official web portal to all federal, state and local government web resources and services.